createdAt,value
2018-10-16T00:00:05.281Z,21.97
2018-10-16T00:01:10.805Z,25.87
2018-10-16T00:02:16.329Z,24.77
2018-10-16T00:03:21.750Z,22.40
2018-10-16T00:04:27.181Z,23.23
2018-10-16T00:05:32.625Z,22.57
2018-10-16T00:06:38.092Z,23.50
2018-10-16T00:07:46.435Z,19.53
2018-10-16T00:08:51.909Z,21.83
2018-10-16T00:09:57.409Z,19.63
2018-10-16T00:11:02.827Z,21.40
2018-10-16T00:12:09.332Z,22.30
2018-10-16T00:13:14.948Z,24.97
2018-10-16T00:14:20.406Z,22.97
2018-10-16T00:15:25.876Z,21.27
2018-10-16T00:16:31.324Z,28.03
2018-10-16T00:17:36.774Z,20.17
2018-10-16T00:18:42.181Z,18.93
2018-10-16T00:19:47.637Z,22.07
2018-10-16T00:20:53.102Z,17.47
2018-10-16T00:21:58.709Z,20.73
2018-10-16T00:23:04.211Z,24.77
2018-10-16T00:24:09.726Z,20.57
2018-10-16T00:25:17.493Z,21.87
2018-10-16T00:26:22.992Z,20.30
2018-10-16T00:27:28.621Z,28.63
2018-10-16T00:28:34.188Z,22.53
2018-10-16T00:29:39.635Z,22.33
2018-10-16T00:30:45.209Z,22.60
2018-10-16T00:31:50.807Z,23.97
2018-10-16T00:32:56.220Z,23.17
2018-10-16T00:34:01.730Z,26.27
2018-10-16T00:35:07.226Z,20.40
2018-10-16T00:36:12.713Z,20.63
2018-10-16T00:37:18.340Z,21.83
2018-10-16T00:38:23.753Z,21.53
2018-10-16T00:39:29.200Z,21.90
2018-10-16T00:40:34.680Z,28.23
2018-10-16T00:41:40.919Z,22.50
2018-10-16T00:42:46.424Z,23.00
2018-10-16T00:43:51.920Z,25.73
2018-10-16T00:44:57.338Z,26.07
2018-10-16T00:46:02.788Z,22.83
2018-10-16T00:47:08.269Z,21.00
2018-10-16T00:48:13.701Z,20.60
2018-10-16T00:49:19.221Z,21.27
2018-10-16T00:50:24.691Z,23.53
2018-10-16T00:51:30.197Z,26.27
2018-10-16T00:52:35.762Z,21.03
2018-10-16T00:53:41.156Z,19.37
2018-10-16T00:54:46.692Z,21.40
2018-10-16T00:55:52.159Z,21.80
2018-10-16T00:56:57.609Z,22.50
2018-10-16T00:58:03.080Z,27.73
2018-10-16T00:59:08.880Z,25.33
2018-10-16T01:00:14.458Z,21.10
2018-10-16T01:01:24.036Z,20.20
2018-10-16T01:02:29.461Z,24.30
2018-10-16T01:03:35.008Z,19.63
2018-10-16T01:04:40.413Z,16.80
2018-10-16T01:05:46.939Z,18.53
2018-10-16T01:06:52.388Z,20.30
2018-10-16T01:07:57.845Z,22.20
2018-10-16T01:09:04.410Z,19.13
2018-10-16T01:10:11.153Z,25.23
2018-10-16T01:11:16.707Z,22.47
2018-10-16T01:12:22.111Z,18.00
2018-10-16T01:13:27.516Z,16.90
2018-10-16T01:14:32.970Z,20.10
2018-10-16T01:15:38.444Z,23.43
2018-10-16T01:16:43.940Z,19.80
2018-10-16T01:17:49.419Z,18.90
2018-10-16T01:18:54.854Z,22.30
2018-10-16T01:20:00.413Z,24.27
2018-10-16T01:21:06.562Z,23.83
2018-10-16T01:22:12.062Z,21.37
2018-10-16T01:23:17.804Z,19.60
2018-10-16T01:24:23.261Z,28.10
2018-10-16T01:25:28.710Z,28.60
2018-10-16T01:26:34.266Z,27.17
2018-10-16T01:27:40.106Z,23.00
2018-10-16T01:28:45.842Z,26.47
2018-10-16T01:29:51.297Z,26.83
2018-10-16T01:30:56.876Z,28.23
2018-10-16T01:32:02.332Z,22.83
2018-10-16T01:33:07.758Z,26.23
2018-10-16T01:34:13.178Z,29.00
2018-10-16T01:35:18.614Z,31.57
2018-10-16T01:36:24.120Z,24.77
2018-10-16T01:37:29.940Z,20.23
2018-10-16T01:38:35.369Z,27.07
2018-10-16T01:39:40.829Z,36.00
2018-10-16T01:40:46.368Z,28.13
2018-10-16T01:41:51.800Z,25.07
2018-10-16T01:42:57.335Z,28.30
2018-10-16T01:44:03.105Z,26.33
2018-10-16T01:45:09.394Z,29.17
2018-10-16T01:46:14.865Z,28.30
2018-10-16T01:47:20.382Z,28.70
2018-10-16T01:48:25.868Z,25.43
2018-10-16T01:49:31.306Z,33.63
2018-10-16T01:50:36.844Z,27.20
2018-10-16T01:51:42.314Z,30.60
2018-10-16T01:52:47.770Z,24.10
2018-10-16T01:53:53.272Z,25.60
2018-10-16T01:54:58.736Z,28.53
2018-10-16T01:56:04.210Z,25.10
2018-10-16T01:57:09.641Z,29.17
2018-10-16T01:58:15.110Z,29.03
2018-10-16T01:59:20.730Z,30.93
2018-10-16T02:00:26.189Z,31.53
2018-10-16T02:01:31.690Z,33.47
2018-10-16T02:02:37.195Z,39.67
2018-10-16T02:03:42.598Z,24.53
2018-10-16T02:04:48.051Z,25.37
2018-10-16T02:05:53.525Z,31.07
2018-10-16T02:06:59.002Z,27.27
2018-10-16T02:08:04.969Z,27.50
2018-10-16T02:09:12.353Z,33.17
2018-10-16T02:10:17.928Z,29.73
2018-10-16T02:11:23.358Z,27.83
2018-10-16T02:12:28.835Z,27.23
2018-10-16T02:13:34.262Z,28.47
2018-10-16T02:14:39.845Z,26.73
2018-10-16T02:15:45.329Z,30.57
2018-10-16T02:16:50.810Z,32.87
2018-10-16T02:17:56.353Z,30.87
2018-10-16T02:19:01.743Z,26.60
2018-10-16T02:20:08.037Z,29.60
2018-10-16T02:21:13.525Z,35.93
2018-10-16T02:22:19.094Z,30.00
2018-10-16T02:23:24.657Z,30.63
2018-10-16T02:24:30.146Z,28.73
2018-10-16T02:25:35.557Z,29.63
2018-10-16T02:26:41.098Z,29.00
2018-10-16T02:27:46.746Z,30.43
2018-10-16T02:28:52.241Z,30.23
2018-10-16T02:29:57.737Z,25.20
2018-10-16T02:31:03.309Z,34.40
2018-10-16T02:32:08.854Z,28.17
2018-10-16T02:33:14.309Z,27.50
2018-10-16T02:34:19.712Z,33.60
2018-10-16T02:35:25.197Z,25.43
2018-10-16T02:36:30.630Z,31.83
2018-10-16T02:37:36.402Z,31.50
2018-10-16T02:38:41.913Z,29.20
2018-10-16T02:39:47.369Z,27.07
2018-10-16T02:40:52.896Z,25.70
2018-10-16T02:41:58.345Z,27.00
2018-10-16T02:43:03.824Z,25.60
2018-10-16T02:44:09.906Z,26.57
2018-10-16T02:45:15.382Z,27.03
2018-10-16T02:46:20.861Z,30.90
2018-10-16T02:47:26.517Z,29.70
2018-10-16T02:48:31.945Z,31.23
2018-10-16T02:49:37.344Z,29.57
2018-10-16T02:50:42.806Z,30.37
2018-10-16T02:51:48.401Z,28.97
2018-10-16T02:52:53.856Z,27.50
2018-10-16T02:53:59.296Z,25.87
2018-10-16T02:55:04.998Z,28.90
2018-10-16T02:56:10.448Z,27.57
2018-10-16T02:57:15.993Z,24.30
2018-10-16T02:58:21.524Z,30.20
2018-10-16T02:59:27.501Z,24.40
2018-10-16T03:00:32.985Z,29.77
2018-10-16T03:01:38.454Z,32.00
2018-10-16T03:02:43.881Z,33.07
2018-10-16T03:03:49.284Z,29.73
2018-10-16T03:04:54.708Z,33.17
2018-10-16T03:06:00.260Z,32.90
2018-10-16T03:07:05.959Z,36.20
2018-10-16T03:08:11.414Z,27.50
2018-10-16T03:09:16.808Z,29.57
2018-10-16T03:10:22.319Z,30.40
2018-10-16T03:11:27.801Z,30.27
2018-10-16T03:12:33.328Z,35.90
2018-10-16T03:13:38.983Z,26.37
2018-10-16T03:14:44.424Z,25.67
2018-10-16T03:15:49.984Z,29.60
2018-10-16T03:16:55.523Z,27.33
2018-10-16T03:18:00.951Z,35.20
2018-10-16T03:19:06.540Z,37.30
2018-10-16T03:20:12.351Z,28.33
2018-10-16T03:21:17.842Z,32.07
2018-10-16T03:22:23.298Z,35.20
2018-10-16T03:23:28.766Z,28.07
2018-10-16T03:24:34.265Z,27.30
2018-10-16T03:25:39.839Z,32.27
2018-10-16T03:26:48.104Z,31.97
2018-10-16T03:27:53.566Z,41.30
2018-10-16T03:28:58.968Z,38.57
2018-10-16T03:30:04.751Z,36.90
2018-10-16T03:31:10.320Z,44.00
2018-10-16T03:32:15.834Z,40.57
2018-10-16T03:33:21.297Z,42.33
2018-10-16T03:34:26.802Z,30.67
2018-10-16T03:35:32.395Z,33.73
2018-10-16T03:36:38.597Z,32.67
2018-10-16T03:37:44.166Z,34.30
2018-10-16T03:38:49.580Z,37.33
2018-10-16T03:39:55.176Z,30.40
2018-10-16T03:41:00.623Z,37.33
2018-10-16T03:42:06.186Z,34.03
2018-10-16T03:43:11.857Z,29.77
2018-10-16T03:44:17.355Z,35.97
2018-10-16T03:45:22.798Z,35.13
2018-10-16T03:46:28.721Z,32.57
2018-10-16T03:47:34.151Z,34.83
2018-10-16T03:48:39.577Z,32.50
2018-10-16T03:49:45.045Z,37.33
2018-10-16T03:50:50.618Z,46.57
2018-10-16T03:51:56.145Z,36.97
2018-10-16T03:53:01.583Z,32.13
2018-10-16T03:54:07.669Z,46.50
2018-10-16T03:55:13.289Z,32.93
2018-10-16T03:56:18.788Z,31.53
2018-10-16T03:57:24.297Z,30.77
2018-10-16T03:58:29.737Z,36.43
2018-10-16T03:59:35.210Z,33.30
2018-10-16T04:00:40.722Z,51.83
2018-10-16T04:01:46.268Z,35.57
2018-10-16T04:02:51.787Z,34.10
2018-10-16T04:03:57.262Z,36.47
2018-10-16T04:05:02.871Z,40.53
2018-10-16T04:06:08.432Z,32.40
2018-10-16T04:07:13.913Z,34.73
2018-10-16T04:08:19.381Z,34.80
2018-10-16T04:09:24.888Z,30.90
2018-10-16T04:10:30.341Z,37.80
2018-10-16T04:11:36.030Z,37.40
2018-10-16T04:12:41.547Z,35.47
2018-10-16T04:13:47.011Z,36.30
2018-10-16T04:14:52.876Z,33.73
2018-10-16T04:15:58.488Z,37.90
2018-10-16T04:17:03.955Z,44.37
2018-10-16T04:18:09.516Z,46.30
2018-10-16T04:19:15.022Z,54.87
2018-10-16T04:20:20.597Z,38.00
2018-10-16T04:21:30.492Z,34.97
2018-10-16T04:22:36.081Z,37.40
2018-10-16T04:23:42.742Z,34.53
2018-10-16T04:24:48.266Z,35.03
2018-10-16T04:25:53.753Z,38.60
2018-10-16T04:26:59.217Z,38.70
2018-10-16T04:28:04.692Z,38.40
2018-10-16T04:29:10.919Z,47.40
2018-10-16T04:30:16.336Z,39.33
2018-10-16T04:31:21.869Z,36.77
2018-10-16T04:32:27.312Z,43.27
2018-10-16T04:33:32.817Z,42.77
2018-10-16T04:34:38.386Z,39.80
2018-10-16T04:35:43.870Z,40.87
2018-10-16T04:36:49.280Z,45.83
2018-10-16T04:37:54.808Z,43.77
2018-10-16T04:39:00.337Z,41.37
2018-10-16T04:40:06.472Z,41.63
2018-10-16T04:41:11.938Z,46.43
2018-10-16T04:42:17.345Z,41.40
2018-10-16T04:43:22.822Z,51.87
2018-10-16T04:44:28.317Z,40.97
2018-10-16T04:45:33.804Z,38.30
2018-10-16T04:46:39.274Z,44.77
2018-10-16T04:47:44.800Z,41.93
2018-10-16T04:48:50.365Z,37.83
2018-10-16T04:49:55.849Z,41.80
2018-10-16T04:51:01.293Z,38.20
2018-10-16T04:52:06.829Z,40.23
2018-10-16T04:53:12.252Z,42.27
2018-10-16T04:54:17.704Z,40.03
2018-10-16T04:55:23.206Z,42.80
2018-10-16T04:56:28.810Z,49.13
2018-10-16T04:57:34.251Z,37.73
2018-10-16T04:58:39.965Z,38.93
2018-10-16T04:59:45.418Z,44.00
2018-10-16T05:00:50.922Z,41.53
2018-10-16T05:01:56.374Z,45.70
2018-10-16T05:03:02.214Z,43.90
2018-10-16T05:04:08.592Z,47.83
2018-10-16T05:05:20.905Z,45.70
2018-10-16T05:06:26.389Z,45.30
2018-10-16T05:07:31.883Z,40.60
2018-10-16T05:08:37.304Z,41.17
2018-10-16T05:09:42.727Z,41.40
2018-10-16T05:10:48.287Z,42.90
2018-10-16T05:11:55.058Z,49.53
2018-10-16T05:13:00.651Z,48.30
2018-10-16T05:14:06.118Z,44.53
2018-10-16T05:15:22.986Z,47.30
2018-10-16T05:16:28.429Z,45.60
2018-10-16T05:17:33.894Z,41.03
2018-10-16T05:18:39.448Z,46.50
2018-10-16T05:19:44.916Z,46.40
2018-10-16T05:20:50.337Z,40.90
2018-10-16T05:21:55.818Z,41.70
2018-10-16T05:23:01.720Z,45.20
2018-10-16T05:24:08.521Z,40.23
2018-10-16T05:25:14.041Z,44.97
2018-10-16T05:26:19.707Z,37.60
2018-10-16T05:27:25.502Z,39.23
2018-10-16T05:28:30.991Z,42.37
2018-10-16T05:29:36.528Z,40.97
2018-10-16T05:30:42.081Z,42.80
2018-10-16T05:31:47.536Z,40.67
2018-10-16T05:32:53.249Z,41.23
2018-10-16T05:33:58.798Z,47.30
2018-10-16T05:35:04.238Z,48.50
2018-10-16T05:36:09.761Z,44.93
2018-10-16T05:37:15.257Z,43.77
2018-10-16T05:38:20.777Z,52.20
2018-10-16T05:39:26.278Z,45.13
2018-10-16T05:40:31.796Z,43.53
2018-10-16T05:41:39.463Z,52.10
2018-10-16T05:42:44.937Z,52.57
2018-10-16T05:43:50.402Z,48.63
2018-10-16T05:44:55.955Z,48.63
2018-10-16T05:46:01.461Z,55.87
2018-10-16T05:47:07.069Z,45.30
2018-10-16T05:48:12.509Z,47.40
2018-10-16T05:49:18.273Z,45.50
2018-10-16T05:50:23.798Z,43.67
2018-10-16T05:51:29.206Z,43.10
2018-10-16T05:52:34.798Z,54.20
2018-10-16T05:53:40.416Z,45.40
2018-10-16T05:54:45.914Z,46.10
2018-10-16T05:56:03.398Z,44.87
2018-10-16T05:57:08.982Z,45.57
2018-10-16T05:58:14.471Z,44.33
2018-10-16T05:59:19.997Z,45.70
2018-10-16T06:00:38.921Z,43.07
2018-10-16T06:01:44.678Z,41.07
2018-10-16T06:02:50.187Z,50.40
2018-10-16T06:03:55.617Z,53.40
2018-10-16T06:05:01.065Z,46.37
2018-10-16T06:06:06.808Z,47.60
2018-10-16T06:07:12.365Z,55.80
2018-10-16T06:08:17.913Z,42.30
2018-10-16T06:09:23.324Z,49.53
2018-10-16T06:10:28.837Z,45.37
2018-10-16T06:11:34.301Z,44.43
2018-10-16T06:12:39.847Z,49.63
2018-10-16T06:13:45.366Z,53.60
2018-10-16T06:14:50.775Z,48.40
2018-10-16T06:15:56.272Z,48.30
2018-10-16T06:17:01.780Z,46.83
2018-10-16T06:18:07.398Z,52.73
2018-10-16T06:19:12.921Z,49.97
2018-10-16T06:20:18.486Z,46.50
2018-10-16T06:21:24.042Z,60.67
2018-10-16T06:22:29.477Z,45.77
2018-10-16T06:23:34.888Z,42.20
2018-10-16T06:24:40.370Z,48.67
2018-10-16T06:25:45.813Z,57.57
2018-10-16T06:26:51.295Z,42.37
2018-10-16T06:27:56.838Z,49.80
2018-10-16T06:29:02.395Z,53.23
2018-10-16T06:30:08.538Z,41.70
2018-10-16T06:31:14.032Z,44.77
2018-10-16T06:32:19.609Z,52.77
2018-10-16T06:33:26.879Z,52.00
2018-10-16T06:34:32.324Z,50.77
2018-10-16T06:35:37.789Z,55.57
2018-10-16T06:36:43.273Z,52.50
2018-10-16T06:37:48.741Z,56.97
2018-10-16T06:38:54.244Z,49.20
2018-10-16T06:39:59.901Z,53.23
2018-10-16T06:41:06.196Z,49.13
2018-10-16T06:42:11.518Z,53.57
2018-10-16T06:43:17.260Z,51.07
2018-10-16T06:44:22.914Z,46.23
2018-10-16T06:45:28.404Z,46.33
2018-10-16T06:46:33.945Z,51.80
2018-10-16T06:47:39.421Z,45.83
2018-10-16T06:48:45.173Z,44.47
2018-10-16T06:49:50.814Z,48.33
2018-10-16T06:50:56.369Z,54.10
2018-10-16T06:52:01.809Z,54.17
2018-10-16T06:53:07.791Z,48.33
2018-10-16T06:54:13.315Z,48.13
2018-10-16T06:55:18.927Z,50.73
2018-10-16T06:56:24.517Z,49.40
2018-10-16T06:57:30.021Z,45.37
2018-10-16T06:58:35.480Z,51.47
2018-10-16T06:59:40.887Z,53.03
2018-10-16T07:00:46.348Z,48.67
2018-10-16T07:01:51.841Z,47.67
2018-10-16T07:02:57.302Z,46.17
2018-10-16T07:04:02.792Z,42.00
2018-10-16T07:05:09.029Z,48.97
2018-10-16T07:06:14.497Z,48.63
2018-10-16T07:07:20.088Z,45.73
2018-10-16T07:08:25.488Z,47.57
2018-10-16T07:09:31.024Z,48.90
2018-10-16T07:10:36.516Z,52.67
2018-10-16T07:11:42.069Z,41.40
2018-10-16T07:12:47.681Z,47.07
2018-10-16T07:13:53.093Z,41.43
2018-10-16T07:14:58.541Z,47.53
2018-10-16T07:16:04.022Z,52.00
2018-10-16T07:17:09.525Z,47.10
2018-10-16T07:18:15.000Z,48.30
2018-10-16T07:19:20.439Z,46.30
2018-10-16T07:20:25.969Z,47.87
2018-10-16T07:21:31.441Z,47.83
2018-10-16T07:22:36.880Z,57.27
2018-10-16T07:23:42.388Z,45.30
2018-10-16T07:24:47.854Z,43.93
2018-10-16T07:25:53.325Z,49.80
2018-10-16T07:26:58.833Z,46.90
2018-10-16T07:28:04.366Z,43.33
2018-10-16T07:29:10.152Z,48.37
2018-10-16T07:30:16.640Z,47.50
2018-10-16T07:31:22.218Z,47.80
2018-10-16T07:32:27.656Z,44.23
2018-10-16T07:33:33.188Z,48.73
2018-10-16T07:34:38.715Z,55.77
2018-10-16T07:35:44.186Z,46.60
2018-10-16T07:36:49.737Z,44.77
2018-10-16T07:37:55.319Z,44.80
2018-10-16T07:39:00.807Z,45.40
2018-10-16T07:40:07.439Z,48.40
2018-10-16T07:41:13.145Z,53.10
2018-10-16T07:42:18.686Z,45.80
2018-10-16T07:43:24.184Z,50.73
2018-10-16T07:44:29.664Z,49.50
2018-10-16T07:45:35.103Z,48.03
2018-10-16T07:46:40.605Z,42.07
2018-10-16T07:47:46.035Z,46.73
2018-10-16T07:48:51.511Z,45.00
2018-10-16T07:49:57.093Z,45.07
2018-10-16T07:51:02.720Z,47.90
2018-10-16T07:52:08.250Z,46.97
2018-10-16T07:53:13.867Z,43.33
2018-10-16T07:54:19.484Z,52.90
2018-10-16T07:55:24.979Z,59.57
2018-10-16T07:56:30.374Z,45.27
2018-10-16T07:57:35.914Z,46.70
2018-10-16T07:58:41.427Z,44.50
2018-10-16T07:59:46.948Z,45.30
2018-10-16T08:00:52.746Z,47.70
2018-10-16T08:01:58.145Z,43.93
2018-10-16T08:03:03.765Z,45.10
2018-10-16T08:04:09.221Z,52.37
2018-10-16T08:05:14.818Z,47.60
2018-10-16T08:06:20.244Z,48.23
2018-10-16T08:07:25.698Z,45.37
2018-10-16T08:08:31.178Z,44.23
2018-10-16T08:09:36.581Z,48.30
2018-10-16T08:10:42.135Z,46.90
2018-10-16T08:11:48.857Z,44.03
2018-10-16T08:12:54.295Z,46.93
2018-10-16T08:13:59.830Z,49.90
2018-10-16T08:15:06.602Z,48.87
2018-10-16T08:16:12.193Z,46.00
2018-10-16T08:17:17.756Z,44.57
2018-10-16T08:18:23.202Z,38.30
2018-10-16T08:19:28.621Z,43.00
2018-10-16T08:20:34.097Z,48.30
2018-10-16T08:21:39.654Z,39.20
2018-10-16T08:22:45.120Z,45.63
2018-10-16T08:23:50.621Z,42.43
2018-10-16T08:24:56.104Z,43.43
2018-10-16T08:26:01.758Z,52.27
2018-10-16T08:27:07.251Z,46.70
2018-10-16T08:28:12.705Z,42.93
2018-10-16T08:29:18.163Z,40.70
2018-10-16T08:30:23.663Z,42.20
2018-10-16T08:31:29.313Z,41.13
2018-10-16T08:32:34.742Z,54.97
2018-10-16T08:33:40.236Z,46.00
2018-10-16T08:34:45.753Z,43.43
2018-10-16T08:35:51.280Z,50.53
2018-10-16T08:36:56.841Z,49.27
2018-10-16T08:40:12.512Z,43.17
2018-10-16T08:41:18.045Z,49.90
2018-10-16T08:43:44.776Z,40.90
2018-10-16T08:45:32.508Z,40.53
2018-10-16T08:46:54.959Z,46.47
2018-10-16T08:48:17.404Z,48.07
2018-10-16T08:49:39.641Z,50.83
2018-10-16T08:51:01.838Z,39.83
2018-10-16T08:52:07.305Z,43.83
2018-10-16T08:53:12.828Z,44.27
2018-10-16T08:54:18.324Z,45.67
2018-10-16T08:55:23.864Z,43.97
2018-10-16T08:56:29.321Z,44.80
2018-10-16T08:57:34.849Z,50.43
2018-10-16T08:58:40.389Z,43.30
2018-10-16T08:59:45.872Z,45.37
2018-10-16T09:00:51.309Z,41.33
2018-10-16T09:01:56.924Z,41.33
2018-10-16T09:03:02.397Z,41.70
2018-10-16T09:04:07.899Z,42.10
2018-10-16T09:05:13.593Z,46.23
2018-10-16T09:06:19.282Z,43.97
2018-10-16T09:07:24.722Z,48.87
2018-10-16T09:08:30.193Z,43.70
2018-10-16T09:09:35.732Z,41.10
2018-10-16T09:10:41.190Z,42.00
2018-10-16T09:11:48.002Z,37.40
2018-10-16T09:12:53.589Z,54.97
2018-10-16T09:13:59.038Z,46.43
2018-10-16T09:15:04.814Z,41.63
2018-10-16T09:16:10.401Z,56.83
2018-10-16T09:17:15.890Z,46.70
2018-10-16T09:18:21.297Z,41.33
2018-10-16T09:19:26.848Z,40.60
2018-10-16T09:20:32.293Z,45.13
2018-10-16T09:21:37.810Z,46.70
2018-10-16T09:22:43.305Z,40.17
2018-10-16T09:23:48.761Z,37.20
2018-10-16T09:24:54.432Z,38.40
2018-10-16T09:25:59.858Z,34.37
2018-10-16T09:27:05.817Z,44.40
2018-10-16T09:28:11.269Z,42.03
2018-10-16T09:29:16.994Z,39.00
2018-10-16T09:30:22.462Z,38.80
2018-10-16T09:31:27.980Z,41.13
2018-10-16T09:32:33.483Z,39.70
2018-10-16T09:33:38.985Z,35.00
2018-10-16T09:34:44.386Z,38.10
2018-10-16T09:35:49.784Z,38.73
2018-10-16T09:36:55.326Z,45.50
2018-10-16T09:38:00.895Z,51.33
2018-10-16T09:39:10.180Z,43.93
2018-10-16T09:40:15.663Z,45.33
2018-10-16T09:41:21.276Z,37.70
2018-10-16T09:42:26.932Z,43.83
2018-10-16T09:43:32.389Z,46.43
2018-10-16T09:44:38.058Z,34.50
2018-10-16T09:45:43.477Z,41.40
2018-10-16T09:46:48.969Z,43.40
2018-10-16T09:47:54.438Z,38.93
2018-10-16T09:48:59.978Z,38.20
2018-10-16T09:50:06.297Z,35.50
2018-10-16T09:51:11.805Z,38.87
2018-10-16T09:52:17.350Z,37.57
2018-10-16T09:53:22.774Z,38.43
2018-10-16T09:54:28.232Z,38.43
2018-10-16T09:55:33.743Z,40.70
2018-10-16T09:56:39.239Z,39.43
2018-10-16T09:57:44.689Z,35.17
2018-10-16T09:58:50.269Z,36.87
2018-10-16T09:59:55.710Z,40.20
2018-10-16T10:01:06.342Z,36.90
2018-10-16T10:02:11.849Z,47.23
2018-10-16T10:03:17.305Z,37.50
2018-10-16T10:04:23.109Z,33.90
2018-10-16T10:05:28.550Z,33.63
2018-10-16T10:06:34.072Z,36.57
2018-10-16T10:07:39.514Z,32.60
2018-10-16T10:08:45.037Z,35.13
2018-10-16T10:09:50.461Z,31.87
2018-10-16T10:10:55.922Z,31.73
2018-10-16T10:12:01.401Z,34.30
2018-10-16T10:13:07.194Z,34.70
2018-10-16T10:14:12.662Z,32.23
2018-10-16T10:15:18.105Z,31.70
2018-10-16T10:16:23.762Z,35.23
2018-10-16T10:17:29.280Z,32.47
2018-10-16T10:18:34.744Z,24.33
2018-10-16T10:19:40.170Z,28.63
2018-10-16T10:20:45.623Z,32.13
2018-10-16T10:21:51.167Z,31.93
2018-10-16T10:22:56.642Z,31.80
2018-10-16T10:24:02.165Z,35.00
2018-10-16T10:25:07.967Z,36.60
2018-10-16T10:26:13.429Z,29.70
2018-10-16T10:27:18.988Z,33.23
2018-10-16T10:28:24.438Z,32.53
2018-10-16T10:29:29.904Z,29.93
2018-10-16T10:30:35.365Z,36.77
2018-10-16T10:31:40.808Z,31.20
2018-10-16T10:32:46.261Z,32.50
2018-10-16T10:33:51.915Z,34.83
2018-10-16T10:34:57.349Z,30.43
2018-10-16T10:36:02.825Z,36.50
2018-10-16T10:37:08.341Z,35.80
2018-10-16T10:38:13.932Z,38.33
2018-10-16T10:39:19.417Z,33.33
2018-10-16T10:40:24.936Z,33.60
2018-10-16T10:41:30.507Z,34.40
2018-10-16T10:42:36.025Z,32.87
2018-10-16T10:43:41.677Z,33.50
2018-10-16T10:44:47.117Z,37.80
2018-10-16T10:45:52.580Z,30.47
2018-10-16T10:46:58.157Z,39.40
2018-10-16T10:48:03.757Z,35.07
2018-10-16T10:49:09.497Z,38.23
2018-10-16T10:50:15.289Z,33.03
2018-10-16T10:51:21.044Z,36.57
2018-10-16T10:52:26.196Z,32.17
2018-10-16T10:53:31.640Z,34.10
2018-10-16T10:54:37.237Z,32.73
2018-10-16T10:55:42.735Z,39.57
2018-10-16T10:56:48.354Z,33.17
2018-10-16T10:57:53.698Z,30.47
2018-10-16T10:58:59.196Z,31.60
2018-10-16T11:00:05.165Z,31.23
2018-10-16T11:01:10.773Z,32.33
2018-10-16T11:02:16.237Z,41.43
2018-10-16T11:03:21.751Z,29.47
2018-10-16T11:04:27.158Z,30.87
2018-10-16T11:05:32.631Z,34.00
2018-10-16T11:06:38.121Z,31.03
2018-10-16T11:07:43.584Z,27.70
2018-10-16T11:08:49.128Z,27.80
2018-10-16T11:09:54.623Z,31.43
2018-10-16T11:11:00.097Z,31.73
2018-10-16T11:12:05.881Z,32.27
2018-10-16T11:13:11.342Z,33.80
2018-10-16T11:14:16.860Z,27.20
2018-10-16T11:15:22.365Z,36.40
2018-10-16T11:16:28.348Z,29.97
2018-10-16T11:17:33.930Z,29.00
2018-10-16T11:18:39.705Z,28.80
2018-10-16T11:19:45.331Z,30.73
2018-10-16T11:20:51.023Z,25.00
2018-10-16T11:21:56.597Z,28.20
2018-10-16T11:23:02.254Z,28.70
2018-10-16T11:24:08.227Z,31.73
2018-10-16T11:25:13.735Z,26.13
2018-10-16T11:26:19.285Z,26.13
2018-10-16T11:27:24.802Z,30.83
2018-10-16T11:28:30.251Z,24.37
2018-10-16T11:29:35.672Z,23.50
2018-10-16T11:30:41.245Z,24.40
2018-10-16T11:31:46.794Z,25.50
2018-10-16T11:32:52.381Z,24.90
2018-10-16T11:33:57.817Z,27.80
2018-10-16T11:35:03.250Z,24.03
2018-10-16T11:36:08.661Z,25.63
2018-10-16T11:37:14.299Z,24.20
2018-10-16T11:38:19.802Z,23.00
2018-10-16T11:39:25.223Z,20.60
2018-10-16T11:40:30.625Z,22.57
2018-10-16T11:41:36.137Z,17.50
2018-10-16T11:42:42.317Z,17.87
2018-10-16T11:43:47.888Z,17.00
2018-10-16T11:44:53.335Z,17.20
2018-10-16T11:45:58.767Z,14.90
2018-10-16T11:47:04.280Z,14.17
2018-10-16T11:48:09.788Z,12.87
2018-10-16T11:49:15.295Z,13.70
2018-10-16T11:50:20.835Z,14.17
2018-10-16T11:51:26.340Z,18.53
2018-10-16T11:52:31.849Z,14.07
2018-10-16T11:53:37.317Z,13.03
2018-10-16T11:54:42.944Z,17.73
2018-10-16T11:55:48.450Z,16.83
2018-10-16T11:56:53.841Z,16.33
2018-10-16T11:57:59.284Z,14.07
2018-10-16T11:59:04.891Z,15.77
2018-10-16T12:00:14.849Z,14.27
2018-10-16T12:01:20.609Z,13.27
2018-10-16T12:02:26.042Z,20.10
2018-10-16T12:03:31.486Z,18.83
2018-10-16T12:04:36.975Z,13.70
2018-10-16T12:05:42.542Z,15.33
2018-10-16T12:06:54.591Z,16.40
2018-10-16T12:08:00.291Z,16.10
2018-10-16T12:09:08.772Z,16.23
2018-10-16T12:10:14.264Z,15.40
2018-10-16T12:11:19.857Z,16.10
2018-10-16T12:12:25.341Z,14.33
2018-10-16T12:13:31.069Z,14.63
2018-10-16T12:14:36.663Z,13.53
2018-10-16T12:15:42.225Z,13.30
2018-10-16T12:16:55.978Z,14.60
2018-10-16T12:18:20.506Z,10.13
2018-10-16T12:19:29.907Z,16.10
2018-10-16T12:20:38.460Z,15.90
2018-10-16T12:21:44.001Z,12.97
2018-10-16T12:22:49.560Z,12.83
2018-10-16T12:23:55.170Z,13.30
2018-10-16T12:25:00.624Z,15.07
2018-10-16T12:26:06.296Z,11.10
2018-10-16T12:27:11.872Z,14.40
2018-10-16T12:28:17.358Z,21.17
2018-10-16T12:29:22.789Z,13.83
2018-10-16T12:30:28.210Z,12.90
2018-10-16T12:31:33.726Z,18.20
2018-10-16T12:32:39.179Z,14.20
2018-10-16T12:33:44.639Z,14.90
2018-10-16T12:34:50.097Z,11.10
2018-10-16T12:35:55.633Z,12.60
2018-10-16T12:37:01.152Z,18.93
2018-10-16T12:38:06.818Z,13.17
2018-10-16T12:39:12.349Z,14.97
2018-10-16T12:40:17.873Z,13.77
2018-10-16T12:41:23.349Z,14.60
2018-10-16T12:42:28.938Z,17.73
2018-10-16T12:43:34.639Z,18.33
2018-10-16T12:44:40.175Z,10.03
2018-10-16T12:45:45.629Z,13.93
2018-10-16T12:46:51.179Z,12.73
2018-10-16T12:47:56.830Z,12.50
2018-10-16T12:49:02.275Z,13.47
2018-10-16T12:50:08.031Z,15.10
2018-10-16T12:51:13.604Z,14.03
2018-10-16T12:52:18.945Z,14.37
2018-10-16T12:53:24.685Z,10.60
2018-10-16T12:54:30.210Z,12.00
2018-10-16T12:55:35.754Z,12.80
2018-10-16T12:56:41.248Z,14.67
2018-10-16T12:57:46.908Z,12.03
2018-10-16T12:58:52.461Z,12.80
2018-10-16T12:59:57.947Z,16.87
2018-10-16T13:01:03.496Z,11.27
2018-10-16T13:02:09.073Z,15.33
2018-10-16T13:03:14.785Z,15.83
2018-10-16T13:04:20.159Z,11.20
2018-10-16T13:05:25.641Z,14.00
2018-10-16T13:06:31.073Z,9.57
2018-10-16T13:07:37.824Z,12.03
2018-10-16T13:08:43.272Z,14.40
2018-10-16T13:09:48.858Z,12.33
2018-10-16T13:10:54.421Z,13.13
2018-10-16T13:11:59.925Z,10.17
2018-10-16T13:13:05.614Z,11.83
2018-10-16T13:14:11.167Z,10.90
2018-10-16T13:15:17.209Z,12.07
2018-10-16T13:16:22.701Z,14.73
2018-10-16T13:17:28.259Z,14.60
2018-10-16T13:18:33.598Z,9.90
2018-10-16T13:19:39.159Z,10.70
2018-10-16T13:20:44.618Z,10.83
2018-10-16T13:21:50.090Z,9.10
2018-10-16T13:22:55.641Z,16.80
2018-10-16T13:24:01.349Z,9.23
2018-10-16T13:25:09.169Z,10.70
2018-10-16T13:26:14.741Z,12.67
2018-10-16T13:27:20.219Z,9.97
2018-10-16T13:28:25.844Z,11.00
2018-10-16T13:29:31.470Z,10.63
2018-10-16T13:30:36.961Z,14.50
2018-10-16T13:31:42.400Z,12.97
2018-10-16T13:32:48.923Z,11.80
2018-10-16T13:33:54.480Z,11.27
2018-10-16T13:34:59.936Z,11.47
2018-10-16T13:36:05.602Z,10.97
2018-10-16T13:37:11.090Z,11.50
2018-10-16T13:38:16.572Z,11.60
2018-10-16T13:39:22.082Z,14.60
2018-10-16T13:40:27.568Z,9.03
2018-10-16T13:41:32.951Z,9.77
2018-10-16T13:42:38.603Z,10.53
2018-10-16T13:43:44.038Z,9.37
2018-10-16T13:44:49.578Z,10.00
2018-10-16T13:45:55.185Z,9.50
2018-10-16T13:47:00.539Z,15.07
2018-10-16T13:48:06.894Z,11.17
2018-10-16T13:49:12.373Z,9.90
2018-10-16T13:50:18.115Z,13.83
2018-10-16T13:51:23.577Z,15.17
2018-10-16T13:52:29.073Z,8.47
2018-10-16T13:53:34.794Z,10.50
2018-10-16T13:54:40.332Z,9.83
2018-10-16T13:55:45.799Z,7.77
2018-10-16T13:56:51.614Z,12.30
2018-10-16T13:57:57.120Z,10.80
2018-10-16T13:59:02.556Z,9.43
2018-10-16T14:00:19.018Z,9.27
2018-10-16T14:01:24.513Z,11.73
2018-10-16T14:02:29.960Z,8.93
2018-10-16T14:03:35.377Z,9.93
2018-10-16T14:04:40.839Z,15.17
2018-10-16T14:05:46.342Z,11.73
2018-10-16T14:06:51.982Z,8.00
2018-10-16T14:07:57.569Z,8.53
2018-10-16T14:09:03.072Z,8.47
2018-10-16T14:10:10.977Z,17.67
2018-10-16T14:11:16.693Z,8.90
2018-10-16T14:12:22.211Z,16.27